Time;durP1;ratioP1;P1;durP2;ratioP2;P2;SDS_P1;SDS_P2;PMS_P1;PMS_P2;Temp;Humidity;BMP_temperature;BMP_pressure;BME280_temperature;BME280_humidity;BME280_pressure;Samples;Min_cycle;Max_cycle;Signal;HPM_P1;HPM_P2
2023/08/24 00:00:57;;;;;;;2.40;1.48;;;;;;;;;;5005589;28;20030;-84
2023/08/24 00:03:24;;;;;;;2.58;1.67;;;;;;;;;;5004646;28;20053;-84
2023/08/24 00:05:51;;;;;;;3.10;1.42;;;;;;;;;;5008849;28;20018;-84
2023/08/24 00:08:17;;;;;;;3.22;1.75;;;;;;;;;;4995490;28;20038;-85
2023/08/24 00:10:46;;;;;;;5.65;1.48;;;;;;;;;;5008234;28;20029;-83
2023/08/24 00:13:12;;;;;;;2.42;1.55;;;;;;;;;;5006619;28;20029;-84
2023/08/24 00:15:39;;;;;;;1.80;1.30;;;;;;;;;;5011966;28;20033;-84
2023/08/24 00:18:05;;;;;;;2.13;1.38;;;;;;;;;;5009617;28;20498;-83
2023/08/24 00:20:34;;;;;;;7.18;1.63;;;;;;;;;;5011368;28;20403;-84
2023/08/24 00:23:00;;;;;;;2.00;1.48;;;;;;;;;;5010003;28;20048;-84
2023/08/24 00:25:26;;;;;;;1.70;1.33;;;;;;;;;;5010533;28;20627;-84
2023/08/24 00:27:55;;;;;;;1.55;1.45;;;;;;;;;;5011381;28;20041;-84
2023/08/24 00:30:21;;;;;;;2.33;1.55;;;;;;;;;;5008738;28;20026;-84
2023/08/24 00:32:47;;;;;;;2.45;1.58;;;;;;;;;;5007693;28;20208;-84
2023/08/24 00:35:13;;;;;;;1.73;1.42;;;;;;;;;;5008321;28;20062;-84
2023/08/24 00:37:40;;;;;;;1.70;1.55;;;;;;;;;;5005032;28;20108;-84
2023/08/24 00:40:09;;;;;;;2.85;1.67;;;;;;;;;;5008950;28;20038;-84
2023/08/24 00:42:39;;;;;;;1.73;1.27;;;;;;;;;;5010167;28;20449;-84
2023/08/24 00:45:06;;;;;;;2.85;2.33;;;;;;;;;;5010549;28;20026;-84
2023/08/24 00:47:32;;;;;;;2.40;1.58;;;;;;;;;;5010429;28;20116;-84
2023/08/24 00:50:00;;;;;;;2.22;1.60;;;;;;;;;;5007922;28;20021;-84
2023/08/24 00:52:27;;;;;;;3.00;2.30;;;;;;;;;;5008199;28;20034;-83
2023/08/24 00:54:53;;;;;;;2.50;1.73;;;;;;;;;;5009792;28;20041;-84
2023/08/24 00:57:19;;;;;;;2.33;1.60;;;;;;;;;;5010177;28;20026;-84
2023/08/24 00:59:46;;;;;;;1.85;1.40;;;;;;;;;;5025234;28;20075;-83
2023/08/24 01:02:12;;;;;;;2.72;1.50;;;;;;;;;;5003682;28;20030;-83
2023/08/24 01:04:38;;;;;;;2.35;1.60;;;;;;;;;;5000908;28;20034;-83
2023/08/24 01:07:04;;;;;;;3.47;1.50;;;;;;;;;;5009688;28;20100;-83
2023/08/24 01:09:30;;;;;;;2.05;1.38;;;;;;;;;;5008098;28;20038;-85
2023/08/24 01:12:10;;;;;;;2.58;1.60;;;;;;;;;;5009758;28;20096;-83
2023/08/24 01:14:42;;;;;;;2.13;1.38;;;;;;;;;;5005174;28;20612;-84
2023/08/24 01:17:11;;;;;;;2.25;1.52;;;;;;;;;;5009892;28;20038;-83
2023/08/24 01:19:40;;;;;;;2.30;1.52;;;;;;;;;;5009805;28;20108;-83
2023/08/24 01:22:09;;;;;;;2.75;1.75;;;;;;;;;;5010316;28;20026;-83
2023/08/24 01:24:55;;;;;;;2.58;1.58;;;;;;;;;;5007285;28;20497;-83
2023/08/24 01:27:22;;;;;;;2.10;1.52;;;;;;;;;;4985377;28;20042;-83
2023/08/24 01:29:48;;;;;;;3.95;1.35;;;;;;;;;;5007947;28;20021;-83
2023/08/24 01:32:14;;;;;;;3.72;1.90;;;;;;;;;;5007770;28;20038;-83
2023/08/24 01:34:40;;;;;;;4.97;1.73;;;;;;;;;;5008680;28;20025;-84
2023/08/24 01:37:10;;;;;;;1.90;1.27;;;;;;;;;;5006874;28;20040;-83
2023/08/24 01:39:44;;;;;;;2.40;1.60;;;;;;;;;;5005208;28;20041;-83
2023/08/24 01:42:11;;;;;;;2.38;1.55;;;;;;;;;;5010076;28;20029;-83
2023/08/24 01:44:39;;;;;;;1.83;1.30;;;;;;;;;;5007728;28;20029;-83
2023/08/24 01:47:05;;;;;;;3.55;1.63;;;;;;;;;;5008954;28;20040;-84
2023/08/24 01:49:32;;;;;;;2.97;1.77;;;;;;;;;;5008520;28;20112;-83
2023/08/24 01:51:59;;;;;;;2.60;1.60;;;;;;;;;;5007649;28;20030;-84
2023/08/24 01:54:25;;;;;;;2.95;1.48;;;;;;;;;;5008982;28;20030;-83
2023/08/24 01:56:51;;;;;;;1.45;1.30;;;;;;;;;;5004291;28;20034;-83
2023/08/24 01:59:17;;;;;;;1.55;1.38;;;;;;;;;;5001867;28;20054;-83
2023/08/24 02:01:42;;;;;;;2.40;1.75;;;;;;;;;;5006224;28;20037;-83
2023/08/24 02:04:08;;;;;;;2.65;1.70;;;;;;;;;;5007666;28;20025;-83
2023/08/24 02:06:34;;;;;;;2.28;1.55;;;;;;;;;;5009719;28;20475;-83
2023/08/24 02:09:01;;;;;;;8.57;2.35;;;;;;;;;;5008326;28;20080;-83
2023/08/24 02:11:27;;;;;;;2.63;1.73;;;;;;;;;;5005781;28;20045;-84
2023/08/24 02:13:53;;;;;;;2.40;1.50;;;;;;;;;;5006041;28;20383;-83
2023/08/24 02:16:19;;;;;;;2.75;1.80;;;;;;;;;;5002603;28;20394;-83
2023/08/24 02:18:45;;;;;;;3.45;2.20;;;;;;;;;;5007246;28;20064;-84
2023/08/24 02:21:12;;;;;;;2.20;1.50;;;;;;;;;;5010544;28;20022;-83
2023/08/24 02:23:38;;;;;;;1.63;1.52;;;;;;;;;;5007470;28;20804;-83
2023/08/24 02:26:04;;;;;;;3.00;1.85;;;;;;;;;;5007677;28;20040;-83
2023/08/24 02:28:30;;;;;;;5.03;1.63;;;;;;;;;;5007048;28;20466;-83
2023/08/24 02:31:00;;;;;;;3.67;1.58;;;;;;;;;;5007408;28;20030;-83
2023/08/24 02:33:26;;;;;;;2.23;1.83;;;;;;;;;;5008693;28;20030;-83
2023/08/24 02:35:52;;;;;;;2.92;1.95;;;;;;;;;;5004440;28;20034;-83
2023/08/24 02:38:18;;;;;;;3.63;1.80;;;;;;;;;;5003670;28;20037;-83
2023/08/24 02:40:44;;;;;;;1.75;1.35;;;;;;;;;;5008501;28;20215;-83
2023/08/24 02:43:10;;;;;;;2.63;1.95;;;;;;;;;;5001411;28;20026;-83
2023/08/24 02:45:36;;;;;;;2.38;1.67;;;;;;;;;;5006106;28;20048;-83
2023/08/24 02:48:02;;;;;;;4.18;1.67;;;;;;;;;;5004845;28;20478;-82
2023/08/24 02:50:28;;;;;;;2.85;1.95;;;;;;;;;;5002851;28;20032;-83
2023/08/24 02:52:54;;;;;;;3.72;1.90;;;;;;;;;;5008056;28;20422;-82
2023/08/24 02:55:20;;;;;;;2.40;1.90;;;;;;;;;;5008111;28;20080;-82
2023/08/24 02:57:46;;;;;;;2.03;1.55;;;;;;;;;;5004879;28;20096;-83
2023/08/24 03:00:13;;;;;;;1.92;1.73;;;;;;;;;;5005562;28;20090;-82
2023/08/24 03:02:39;;;;;;;5.75;1.42;;;;;;;;;;5004246;28;20029;-82
2023/08/24 03:05:06;;;;;;;1.80;1.33;;;;;;;;;;5007693;28;20705;-83
2023/08/24 03:07:32;;;;;;;2.88;1.98;;;;;;;;;;5005469;28;20152;-82
2023/08/24 03:09:58;;;;;;;2.85;1.90;;;;;;;;;;5007415;28;20026;-82
2023/08/24 03:12:24;;;;;;;3.22;1.70;;;;;;;;;;5007933;28;20034;-83
2023/08/24 03:14:54;;;;;;;2.05;1.70;;;;;;;;;;5006132;28;20036;-82
2023/08/24 03:17:20;;;;;;;3.08;1.73;;;;;;;;;;5005533;28;20486;-82
2023/08/24 03:19:46;;;;;;;5.32;2.97;;;;;;;;;;5007406;28;20065;-82
2023/08/24 03:22:12;;;;;;;2.45;1.35;;;;;;;;;;5006861;28;20073;-82
2023/08/24 03:24:38;;;;;;;4.32;1.90;;;;;;;;;;5005755;28;20474;-82
2023/08/24 03:27:04;;;;;;;3.65;1.80;;;;;;;;;;5005749;28;20033;-82
2023/08/24 03:29:30;;;;;;;2.97;1.98;;;;;;;;;;5006288;28;20041;-82
2023/08/24 03:31:56;;;;;;;2.75;1.88;;;;;;;;;;5000523;28;20486;-82
2023/08/24 03:34:22;;;;;;;3.40;2.20;;;;;;;;;;5006772;28;20022;-82
2023/08/24 03:36:48;;;;;;;4.57;2.25;;;;;;;;;;5002458;28;20026;-82
2023/08/24 03:39:15;;;;;;;1.73;1.50;;;;;;;;;;5007000;28;20030;-82
2023/08/24 03:41:41;;;;;;;3.85;1.80;;;;;;;;;;5006343;28;20486;-82
2023/08/24 03:44:07;;;;;;;2.45;1.38;;;;;;;;;;5005816;28;20029;-82
2023/08/24 03:46:36;;;;;;;2.72;2.00;;;;;;;;;;5005932;28;20505;-82
2023/08/24 03:49:02;;;;;;;1.58;1.48;;;;;;;;;;5009493;28;20113;-82
2023/08/24 03:51:28;;;;;;;3.50;1.70;;;;;;;;;;5005013;28;20112;-82
2023/08/24 03:53:54;;;;;;;3.05;1.90;;;;;;;;;;5010184;28;20033;-82
2023/08/24 03:56:20;;;;;;;3.55;2.05;;;;;;;;;;5009943;28;20502;-82
2023/08/24 03:58:46;;;;;;;3.38;1.90;;;;;;;;;;5008475;28;20030;-82
2023/08/24 04:01:12;;;;;;;1.70;1.40;;;;;;;;;;5008674;28;20129;-82
2023/08/24 04:03:38;;;;;;;4.28;1.88;;;;;;;;;;5010220;28;20040;-82
2023/08/24 04:06:05;;;;;;;2.38;1.95;;;;;;;;;;5006835;28;20034;-82
2023/08/24 04:08:31;;;;;;;3.42;2.38;;;;;;;;;;5007935;28;20384;-82
2023/08/24 04:10:57;;;;;;;4.15;1.90;;;;;;;;;;5007822;28;20025;-83
2023/08/24 04:13:23;;;;;;;2.20;1.60;;;;;;;;;;5005015;28;20032;-82
2023/08/24 04:15:49;;;;;;;2.00;1.70;;;;;;;;;;5007642;28;20029;-82
2023/08/24 04:18:15;;;;;;;2.67;2.20;;;;;;;;;;5009150;28;20091;-83
2023/08/24 04:20:41;;;;;;;2.17;1.65;;;;;;;;;;5010805;28;20037;-83
2023/08/24 04:23:07;;;;;;;2.90;1.95;;;;;;;;;;5011215;28;20041;-82
2023/08/24 04:25:33;;;;;;;3.53;2.15;;;;;;;;;;5023430;28;20030;-82
2023/08/24 04:27:59;;;;;;;4.07;2.22;;;;;;;;;;5008098;28;20057;-82
2023/08/24 04:30:25;;;;;;;2.55;1.52;;;;;;;;;;5008330;28;20092;-82
2023/08/24 04:32:51;;;;;;;1.80;1.70;;;;;;;;;;5007822;28;20566;-83
2023/08/24 04:35:16;;;;;;;3.22;1.80;;;;;;;;;;5007333;28;20037;-82
2023/08/24 04:37:42;;;;;;;2.38;1.50;;;;;;;;;;5006763;28;20066;-82
2023/08/24 04:40:09;;;;;;;2.40;1.65;;;;;;;;;;5007667;28;20037;-82
2023/08/24 04:42:35;;;;;;;3.20;1.27;;;;;;;;;;5006259;28;20985;-81
2023/08/24 04:45:01;;;;;;;3.33;1.85;;;;;;;;;;5003587;28;20080;-82
2023/08/24 04:47:27;;;;;;;2.58;1.85;;;;;;;;;;5009495;28;20053;-82
2023/08/24 04:49:53;;;;;;;2.78;1.50;;;;;;;;;;5007624;28;20029;-82
2023/08/24 04:52:19;;;;;;;1.73;1.42;;;;;;;;;;5001618;28;20561;-82
2023/08/24 04:54:45;;;;;;;3.70;2.00;;;;;;;;;;5003921;28;20814;-82
2023/08/24 04:57:11;;;;;;;2.78;1.58;;;;;;;;;;5005535;28;20037;-76
2023/08/24 04:59:37;;;;;;;3.20;1.88;;;;;;;;;;5007165;28;20054;-84
2023/08/24 05:02:03;;;;;;;1.73;1.20;;;;;;;;;;5003445;28;20018;-83
2023/08/24 05:04:29;;;;;;;3.08;1.60;;;;;;;;;;5007253;28;20022;-83
2023/08/24 05:06:55;;;;;;;2.15;1.30;;;;;;;;;;5009921;28;20117;-83
2023/08/24 05:09:22;;;;;;;1.98;1.63;;;;;;;;;;5009902;28;20077;-84
2023/08/24 05:11:48;;;;;;;2.35;1.50;;;;;;;;;;5022341;28;20021;-85
2023/08/24 05:14:14;;;;;;;1.83;1.40;;;;;;;;;;5001641;28;20114;-84
2023/08/24 05:16:40;;;;;;;1.65;1.20;;;;;;;;;;5007743;28;20026;-84
2023/08/24 05:19:06;;;;;;;1.75;1.20;;;;;;;;;;5005655;28;20406;-84
2023/08/24 05:21:32;;;;;;;1.42;1.33;;;;;;;;;;5005829;28;20053;-83
2023/08/24 05:23:58;;;;;;;2.80;1.65;;;;;;;;;;5006530;28;20030;-76
2023/08/24 05:26:24;;;;;;;2.03;1.50;;;;;;;;;;5006085;28;20050;-80
2023/08/24 05:28:50;;;;;;;1.42;1.33;;;;;;;;;;5009548;28;20026;-80
2023/08/24 05:31:17;;;;;;;1.85;1.30;;;;;;;;;;5007521;28;20037;-79
2023/08/24 05:33:43;;;;;;;2.15;1.73;;;;;;;;;;5007034;28;20109;-79
2023/08/24 05:36:09;;;;;;;1.42;1.23;;;;;;;;;;5003759;28;20037;-80
2023/08/24 05:38:35;;;;;;;2.17;1.40;;;;;;;;;;5008533;28;20550;-80
2023/08/24 05:41:00;;;;;;;1.60;1.10;;;;;;;;;;5005694;28;20483;-78
2023/08/24 05:43:26;;;;;;;1.50;1.40;;;;;;;;;;5006019;28;20030;-78
2023/08/24 05:45:52;;;;;;;2.00;1.58;;;;;;;;;;5009310;28;20045;-80
2023/08/24 05:48:18;;;;;;;1.23;1.00;;;;;;;;;;5007661;28;20034;-79
2023/08/24 05:50:45;;;;;;;1.42;1.10;;;;;;;;;;5006899;28;20037;-79
2023/08/24 05:53:11;;;;;;;4.32;1.15;;;;;;;;;;5002969;28;20478;-79
2023/08/24 05:55:38;;;;;;;2.25;1.25;;;;;;;;;;5001061;28;20410;-80
2023/08/24 05:58:04;;;;;;;2.67;1.60;;;;;;;;;;5004665;28;20045;-80
2023/08/24 06:00:30;;;;;;;1.23;1.13;;;;;;;;;;5004167;28;20041;-78
2023/08/24 06:02:55;;;;;;;1.40;1.13;;;;;;;;;;5005903;28;20371;-78
2023/08/24 06:05:22;;;;;;;1.70;1.23;;;;;;;;;;5001938;28;20084;-84
2023/08/24 06:07:49;;;;;;;1.23;0.98;;;;;;;;;;5002915;28;20022;-86
2023/08/24 06:10:15;;;;;;;1.25;1.08;;;;;;;;;;5007454;28;20037;-83
2023/08/24 06:12:41;;;;;;;1.67;1.50;;;;;;;;;;5007273;28;20038;-88
2023/08/24 06:15:09;;;;;;;1.27;1.10;;;;;;;;;;5002707;28;20517;-81
2023/08/24 06:17:35;;;;;;;1.65;1.33;;;;;;;;;;5005324;28;20061;-80
2023/08/24 06:20:03;;;;;;;1.13;1.00;;;;;;;;;;5008262;28;20037;-77
2023/08/24 06:22:29;;;;;;;1.25;1.15;;;;;;;;;;5004217;28;20581;-90
2023/08/24 06:24:59;;;;;;;3.03;1.73;;;;;;;;;;5021744;28;20096;-81
2023/08/24 06:27:25;;;;;;;1.25;1.10;;;;;;;;;;5007139;28;20026;-78
2023/08/24 06:29:51;;;;;;;1.65;1.38;;;;;;;;;;5002895;28;20036;-79
2023/08/24 06:32:17;;;;;;;1.77;1.10;;;;;;;;;;5004168;28;20482;-79
2023/08/24 06:34:43;;;;;;;1.42;1.10;;;;;;;;;;5007532;28;20026;-79
2023/08/24 06:37:09;;;;;;;1.92;1.30;;;;;;;;;;5004633;28;20101;-79
2023/08/24 06:39:35;;;;;;;1.98;1.40;;;;;;;;;;5005587;28;20058;-79
2023/08/24 06:42:02;;;;;;;1.83;1.40;;;;;;;;;;5008487;28;20040;-79
2023/08/24 06:44:28;;;;;;;2.25;1.08;;;;;;;;;;5008576;28;20397;-79
2023/08/24 06:46:54;;;;;;;1.90;1.30;;;;;;;;;;5008292;28;20014;-79
2023/08/24 06:49:20;;;;;;;1.60;1.23;;;;;;;;;;5007314;28;20600;-79
2023/08/24 06:51:46;;;;;;;1.25;1.08;;;;;;;;;;5000341;28;20026;-79
2023/08/24 06:54:13;;;;;;;1.20;1.10;;;;;;;;;;5022975;28;20040;-79
2023/08/24 06:56:39;;;;;;;1.35;1.25;;;;;;;;;;5007079;28;20025;-79
2023/08/24 06:59:05;;;;;;;2.20;1.50;;;;;;;;;;5008356;28;20441;-79
2023/08/24 07:01:31;;;;;;;3.10;1.85;;;;;;;;;;5007911;28;20390;-79
2023/08/24 07:03:57;;;;;;;1.20;1.10;;;;;;;;;;5007642;28;20101;-79
2023/08/24 07:06:24;;;;;;;1.75;1.38;;;;;;;;;;5003424;28;20076;-79
2023/08/24 07:08:50;;;;;;;1.23;1.13;;;;;;;;;;4989322;28;20030;-79
2023/08/24 07:11:17;;;;;;;2.10;1.40;;;;;;;;;;5001746;28;20080;-79
2023/08/24 07:13:43;;;;;;;2.13;1.40;;;;;;;;;;5007884;28;20472;-79
2023/08/24 07:16:09;;;;;;;2.28;1.35;;;;;;;;;;5006813;28;20033;-79
2023/08/24 07:18:35;;;;;;;1.15;1.00;;;;;;;;;;5007916;28;20034;-79
2023/08/24 07:21:01;;;;;;;4.43;1.83;;;;;;;;;;5003697;28;20025;-79
2023/08/24 07:23:27;;;;;;;8.65;2.30;;;;;;;;;;5006913;28;20501;-79
2023/08/24 07:25:53;;;;;;;1.50;1.20;;;;;;;;;;5007746;28;20465;-79
2023/08/24 07:28:19;;;;;;;6.50;1.25;;;;;;;;;;5007855;28;20018;-80
2023/08/24 07:30:45;;;;;;;3.13;1.42;;;;;;;;;;5006089;28;20376;-79
2023/08/24 07:33:11;;;;;;;4.50;1.67;;;;;;;;;;5002745;28;20034;-79
2023/08/24 07:35:37;;;;;;;2.10;1.25;;;;;;;;;;4999478;28;20465;-80
2023/08/24 07:38:04;;;;;;;2.60;1.75;;;;;;;;;;4998889;28;20027;-79
2023/08/24 07:40:30;;;;;;;1.60;1.30;;;;;;;;;;4988267;28;20026;-79
2023/08/24 07:42:56;;;;;;;2.20;1.58;;;;;;;;;;5004984;28;20445;-79
2023/08/24 07:45:26;;;;;;;1.15;1.05;;;;;;;;;;4999059;28;20529;-79
2023/08/24 07:47:52;;;;;;;1.48;1.35;;;;;;;;;;5007483;28;20028;-79
2023/08/24 07:50:18;;;;;;;1.77;1.45;;;;;;;;;;5007596;28;20033;-79
2023/08/24 07:52:44;;;;;;;1.25;1.13;;;;;;;;;;5006368;28;20485;-79
2023/08/24 07:55:13;;;;;;;1.40;1.30;;;;;;;;;;5004672;28;20034;-79
2023/08/24 07:57:47;;;;;;;1.63;1.33;;;;;;;;;;5007749;28;20393;-79
2023/08/24 08:00:14;;;;;;;1.63;1.40;;;;;;;;;;5005665;28;20056;-79
2023/08/24 08:02:40;;;;;;;3.47;1.80;;;;;;;;;;5022476;28;20022;-79
2023/08/24 08:05:07;;;;;;;1.90;1.63;;;;;;;;;;5006608;28;20487;-79
2023/08/24 08:07:33;;;;;;;1.30;1.20;;;;;;;;;;4994412;28;20540;-79
2023/08/24 08:09:59;;;;;;;1.30;1.20;;;;;;;;;;4987807;28;20395;-79
2023/08/24 08:12:25;;;;;;;1.50;1.38;;;;;;;;;;4987962;28;20018;-79
2023/08/24 08:14:51;;;;;;;2.03;1.30;;;;;;;;;;4987712;28;20034;-79
2023/08/24 08:17:17;;;;;;;2.78;1.60;;;;;;;;;;4995838;28;20046;-79
2023/08/24 08:19:43;;;;;;;5.22;1.42;;;;;;;;;;4993678;28;20037;-79
2023/08/24 08:22:09;;;;;;;3.88;1.85;;;;;;;;;;5007516;28;20030;-79
2023/08/24 08:24:35;;;;;;;2.30;1.77;;;;;;;;;;5006768;28;20462;-79
2023/08/24 08:27:02;;;;;;;1.73;1.17;;;;;;;;;;5006474;28;20030;-79
2023/08/24 08:29:28;;;;;;;2.08;1.40;;;;;;;;;;4989398;28;20114;-79
2023/08/24 08:31:54;;;;;;;2.47;1.40;;;;;;;;;;4988161;28;20075;-79
2023/08/24 08:34:20;;;;;;;1.30;1.10;;;;;;;;;;4988820;28;20029;-78
2023/08/24 08:36:46;;;;;;;2.45;1.73;;;;;;;;;;4991371;28;20022;-79
2023/08/24 08:39:13;;;;;;;2.42;1.70;;;;;;;;;;5002979;28;20033;-79
2023/08/24 08:41:42;;;;;;;1.45;1.30;;;;;;;;;;4999061;28;20018;-79
2023/08/24 08:44:09;;;;;;;1.63;1.45;;;;;;;;;;4991389;28;20022;-79
2023/08/24 08:46:35;;;;;;;1.13;1.02;;;;;;;;;;4990730;28;20133;-79
2023/08/24 08:49:02;;;;;;;1.65;1.38;;;;;;;;;;4999999;28;20026;-79
2023/08/24 08:51:29;;;;;;;2.05;0.98;;;;;;;;;;4998951;28;20026;-80
2023/08/24 08:53:54;;;;;;;1.05;0.98;;;;;;;;;;4998356;28;20609;-79
2023/08/24 08:56:21;;;;;;;1.23;1.13;;;;;;;;;;4990913;28;20706;-79
2023/08/24 08:58:47;;;;;;;2.10;1.40;;;;;;;;;;4990371;28;20040;-79
2023/08/24 09:01:13;;;;;;;1.40;1.20;;;;;;;;;;4990799;28;20384;-79
2023/08/24 09:03:40;;;;;;;3.35;1.40;;;;;;;;;;4993856;28;20038;-79
2023/08/24 09:06:06;;;;;;;2.15;1.55;;;;;;;;;;4990875;28;20387;-79
2023/08/24 09:08:32;;;;;;;1.60;1.50;;;;;;;;;;4990104;28;20084;-79
2023/08/24 09:11:02;;;;;;;1.40;1.30;;;;;;;;;;4990701;28;20094;-79
2023/08/24 09:13:28;;;;;;;2.08;1.17;;;;;;;;;;4992656;28;20042;-79
2023/08/24 09:15:54;;;;;;;1.70;1.30;;;;;;;;;;4999005;28;20027;-79
2023/08/24 09:18:21;;;;;;;4.68;1.75;;;;;;;;;;4991171;28;20023;-79
2023/08/24 09:20:47;;;;;;;1.65;1.35;;;;;;;;;;5003448;28;20038;-79
2023/08/24 09:23:20;;;;;;;1.45;1.33;;;;;;;;;;5010274;28;20030;-79
2023/08/24 09:25:47;;;;;;;2.22;1.55;;;;;;;;;;5007524;28;20026;-79
2023/08/24 09:28:13;;;;;;;1.77;1.13;;;;;;;;;;5008738;28;20040;-79
2023/08/24 09:30:39;;;;;;;1.25;1.15;;;;;;;;;;5009323;28;20026;-79
2023/08/24 09:33:10;;;;;;;1.50;1.40;;;;;;;;;;5009898;28;20117;-79
2023/08/24 09:35:36;;;;;;;1.70;1.30;;;;;;;;;;5006567;28;20030;-79
2023/08/24 09:38:17;;;;;;;3.42;1.63;;;;;;;;;;4995272;28;20034;-79
2023/08/24 09:40:47;;;;;;;1.20;1.10;;;;;;;;;;4991069;28;20038;-79
2023/08/24 09:43:13;;;;;;;1.67;1.48;;;;;;;;;;4990115;28;20026;-79
2023/08/24 09:45:48;;;;;;;1.65;1.35;;;;;;;;;;4991192;28;20031;-79
2023/08/24 09:48:14;;;;;;;2.53;1.45;;;;;;;;;;5003666;28;20076;-79
2023/08/24 09:50:40;;;;;;;1.73;1.20;;;;;;;;;;4990319;28;20034;-79
2023/08/24 09:53:07;;;;;;;2.75;1.40;;;;;;;;;;4989654;28;20438;-79
2023/08/24 09:55:34;;;;;;;2.75;1.20;;;;;;;;;;4989583;28;20233;-80
2023/08/24 09:58:01;;;;;;;1.25;1.10;;;;;;;;;;5006224;28;20030;-74
2023/08/24 10:00:27;;;;;;;1.10;1.00;;;;;;;;;;5009372;28;20046;-77
2023/08/24 10:02:53;;;;;;;2.45;1.67;;;;;;;;;;5008294;28;20172;-77
2023/08/24 10:05:25;;;;;;;1.10;1.00;;;;;;;;;;5009255;28;20516;-77
2023/08/24 10:07:53;;;;;;;1.25;1.15;;;;;;;;;;5006674;28;20045;-78
2023/08/24 10:10:20;;;;;;;2.38;1.30;;;;;;;;;;5002365;28;20030;-77
2023/08/24 10:12:48;;;;;;;1.30;1.05;;;;;;;;;;5007181;28;20029;-81
2023/08/24 10:15:15;;;;;;;1.25;1.15;;;;;;;;;;4989903;28;20050;-76
2023/08/24 10:17:41;;;;;;;1.95;1.33;;;;;;;;;;4991923;28;20068;-76
2023/08/24 10:20:10;;;;;;;2.92;1.27;;;;;;;;;;4995128;28;20029;-77
2023/08/24 10:22:37;;;;;;;0.90;0.90;;;;;;;;;;5004303;28;20510;-77
2023/08/24 10:25:03;;;;;;;0.88;0.88;;;;;;;;;;5009216;28;20037;-77
2023/08/24 10:27:32;;;;;;;1.30;1.20;;;;;;;;;;5007568;28;20022;-78
2023/08/24 10:30:01;;;;;;;1.77;1.30;;;;;;;;;;5007815;28;20119;-77
2023/08/24 10:32:28;;;;;;;1.08;0.98;;;;;;;;;;5002599;28;20410;-77
2023/08/24 10:34:54;;;;;;;1.17;1.08;;;;;;;;;;5008703;28;20040;-77
2023/08/24 10:37:25;;;;;;;1.50;1.40;;;;;;;;;;5002965;28;20641;-77
2023/08/24 10:39:51;;;;;;;1.20;1.10;;;;;;;;;;4999577;28;20425;-77
2023/08/24 10:42:17;;;;;;;1.30;1.20;;;;;;;;;;5008443;28;20030;-78
2023/08/24 10:44:47;;;;;;;1.25;1.15;;;;;;;;;;5007811;28;20018;-77
2023/08/24 10:47:14;;;;;;;1.92;1.23;;;;;;;;;;5004130;28;20500;-77
2023/08/24 10:49:41;;;;;;;1.08;1.02;;;;;;;;;;5005185;28;20394;-78
2023/08/24 10:52:17;;;;;;;1.85;1.38;;;;;;;;;;5007173;28;20841;-77
2023/08/24 10:54:45;;;;;;;1.25;1.15;;;;;;;;;;5005317;28;20048;-77
2023/08/24 10:57:18;;;;;;;1.30;1.20;;;;;;;;;;5003783;28;20405;-77
2023/08/24 10:59:44;;;;;;;1.90;1.23;;;;;;;;;;4999456;28;20038;-77
2023/08/24 11:02:18;;;;;;;2.08;1.40;;;;;;;;;;5004913;28;20037;-76
2023/08/24 11:05:04;;;;;;;1.40;1.30;;;;;;;;;;4994135;28;20033;-76
2023/08/24 11:07:30;;;;;;;1.50;1.40;;;;;;;;;;4999351;28;20014;-77
2023/08/24 11:09:56;;;;;;;1.58;1.40;;;;;;;;;;5001298;28;20062;-77
2023/08/24 11:12:22;;;;;;;1.67;1.42;;;;;;;;;;4998389;28;20088;-77
2023/08/24 11:14:54;;;;;;;2.15;1.60;;;;;;;;;;4991888;28;20039;-77
2023/08/24 11:17:21;;;;;;;3.13;1.55;;;;;;;;;;4988433;28;20035;-77
2023/08/24 11:19:51;;;;;;;1.55;1.30;;;;;;;;;;4992175;28;20025;-77
2023/08/24 11:22:18;;;;;;;1.63;1.52;;;;;;;;;;4996059;28;20368;-77
2023/08/24 11:24:44;;;;;;;1.88;1.52;;;;;;;;;;4990830;28;20030;-78
2023/08/24 11:27:10;;;;;;;1.67;1.33;;;;;;;;;;5006031;28;20026;-77
2023/08/24 11:29:36;;;;;;;1.83;1.40;;;;;;;;;;4997772;28;20130;-76
2023/08/24 11:32:02;;;;;;;2.40;1.67;;;;;;;;;;4988984;28;20026;-77
2023/08/24 11:34:29;;;;;;;1.95;1.70;;;;;;;;;;4993288;28;20486;-76
2023/08/24 11:36:54;;;;;;;2.53;2.03;;;;;;;;;;5000482;28;20188;-76
2023/08/24 11:39:22;;;;;;;2.08;1.65;;;;;;;;;;5005045;28;20363;-76
2023/08/24 11:42:04;;;;;;;2.33;1.92;;;;;;;;;;5005023;28;20018;-77
2023/08/24 11:44:45;;;;;;;1.88;1.70;;;;;;;;;;5007926;28;20474;-76
2023/08/24 11:47:11;;;;;;;2.15;1.70;;;;;;;;;;5006143;28;20121;-76
2023/08/24 11:49:38;;;;;;;1.88;1.70;;;;;;;;;;5007825;28;20117;-77
2023/08/24 11:52:03;;;;;;;3.20;1.92;;;;;;;;;;5008010;28;20022;-76
2023/08/24 11:54:32;;;;;;;2.33;1.63;;;;;;;;;;5007797;28;20492;-76
2023/08/24 11:56:58;;;;;;;4.03;1.83;;;;;;;;;;5007408;28;20433;-76
2023/08/24 11:59:25;;;;;;;3.30;1.95;;;;;;;;;;5005628;28;20038;-76
2023/08/24 12:01:52;;;;;;;2.63;2.00;;;;;;;;;;5007879;28;20639;-76
2023/08/24 12:04:18;;;;;;;3.60;2.33;;;;;;;;;;5007903;28;20390;-76
2023/08/24 12:06:44;;;;;;;2.15;1.50;;;;;;;;;;5007102;28;20589;-76
2023/08/24 12:09:11;;;;;;;1.83;1.60;;;;;;;;;;5009155;28;20042;-76
2023/08/24 12:11:38;;;;;;;2.15;1.80;;;;;;;;;;5010764;28;20036;-76
2023/08/24 12:14:05;;;;;;;1.80;1.70;;;;;;;;;;5010530;28;20265;-77
2023/08/24 12:16:32;;;;;;;2.30;1.73;;;;;;;;;;5007886;28;20030;-77
2023/08/24 12:19:00;;;;;;;2.55;1.83;;;;;;;;;;5008779;28;20037;-77
2023/08/24 12:21:26;;;;;;;2.00;1.80;;;;;;;;;;5006659;28;20101;-77
2023/08/24 12:24:05;;;;;;;2.13;1.88;;;;;;;;;;5005869;28;20391;-76
2023/08/24 12:26:31;;;;;;;2.58;1.85;;;;;;;;;;5003818;28;20037;-76
2023/08/24 12:29:02;;;;;;;2.63;1.80;;;;;;;;;;5011173;28;20045;-76
2023/08/24 12:31:28;;;;;;;;;;;;;;;;;;5007949;28;20029;-76
2023/08/24 12:34:01;;;;;;;2.03;1.77;;;;;;;;;;5005160;28;19916;-76
2023/08/24 12:36:27;;;;;;;2.92;1.85;;;;;;;;;;5007247;28;20041;-76
2023/08/24 12:38:53;;;;;;;1.38;1.27;;;;;;;;;;5005026;28;20691;-77
2023/08/24 12:41:19;;;;;;;1.50;1.40;;;;;;;;;;5000820;28;20605;-77
2023/08/24 12:43:45;;;;;;;2.60;1.60;;;;;;;;;;5010744;28;20022;-76
2023/08/24 12:46:11;;;;;;;3.25;1.70;;;;;;;;;;5009430;28;20040;-77
2023/08/24 12:48:37;;;;;;;2.75;1.75;;;;;;;;;;5005258;28;20092;-77
2023/08/24 12:51:03;;;;;;;1.65;1.55;;;;;;;;;;5007158;28;20033;-77
2023/08/24 12:53:29;;;;;;;1.75;1.63;;;;;;;;;;5010302;28;20033;-76
2023/08/24 12:55:55;;;;;;;2.97;1.90;;;;;;;;;;5010464;28;20038;-77
2023/08/24 12:58:21;;;;;;;1.98;1.75;;;;;;;;;;5004554;28;20030;-77
2023/08/24 13:00:48;;;;;;;5.22;2.42;;;;;;;;;;5002986;28;20034;-77
2023/08/24 13:03:14;;;;;;;2.13;1.77;;;;;;;;;;5009681;28;20124;-76
2023/08/24 13:05:40;;;;;;;2.63;1.90;;;;;;;;;;5009762;28;20029;-77
2023/08/24 13:08:06;;;;;;;1.65;1.55;;;;;;;;;;4997626;28;20022;-77
2023/08/24 13:10:32;;;;;;;1.73;1.63;;;;;;;;;;5002557;28;20483;-77
2023/08/24 13:12:58;;;;;;;1.63;1.52;;;;;;;;;;5005120;28;20030;-77
2023/08/24 13:15:24;;;;;;;2.58;1.88;;;;;;;;;;5007928;28;20038;-76
2023/08/24 13:17:50;;;;;;;1.77;1.67;;;;;;;;;;5010089;28;20032;-77
2023/08/24 13:20:16;;;;;;;2.50;1.90;;;;;;;;;;5009503;28;20029;-77
2023/08/24 13:22:42;;;;;;;2.10;1.70;;;;;;;;;;5009683;28;20462;-77
2023/08/24 13:25:08;;;;;;;2.10;1.90;;;;;;;;;;5006686;28;20022;-77
2023/08/24 13:27:34;;;;;;;1.75;1.50;;;;;;;;;;5009140;28;20030;-77
2023/08/24 13:30:00;;;;;;;9.95;1.77;;;;;;;;;;5002677;28;20092;-77
2023/08/24 13:32:27;;;;;;;2.70;1.70;;;;;;;;;;5000996;28;20066;-77
2023/08/24 13:34:53;;;;;;;2.13;1.55;;;;;;;;;;5006302;28;20034;-77
2023/08/24 13:37:19;;;;;;;2.05;1.85;;;;;;;;;;5001780;28;20034;-77
2023/08/24 13:39:45;;;;;;;2.30;2.10;;;;;;;;;;4999187;28;20032;-76
2023/08/24 13:42:12;;;;;;;2.25;1.77;;;;;;;;;;5000911;28;20025;-78
2023/08/24 13:44:38;;;;;;;2.55;1.77;;;;;;;;;;5005770;28;20596;-76
2023/08/24 13:47:05;;;;;;;1.95;1.75;;;;;;;;;;5016156;28;20120;-75
2023/08/24 13:49:31;;;;;;;2.28;1.83;;;;;;;;;;5001542;28;20026;-77
2023/08/24 13:51:57;;;;;;;4.13;2.63;;;;;;;;;;5003559;28;20121;-77
2023/08/24 13:54:26;;;;;;;1.80;1.67;;;;;;;;;;5002974;28;20129;-77
2023/08/24 13:56:53;;;;;;;1.98;1.60;;;;;;;;;;5002359;28;20105;-77
2023/08/24 13:59:20;;;;;;;2.33;1.90;;;;;;;;;;5002135;28;20062;-76
2023/08/24 14:01:46;;;;;;;2.35;1.70;;;;;;;;;;5006909;28;20071;-77
2023/08/24 14:04:12;;;;;;;2.42;1.90;;;;;;;;;;4998332;28;20027;-76
2023/08/24 14:06:38;;;;;;;2.03;1.60;;;;;;;;;;5003286;28;20186;-77
2023/08/24 14:09:05;;;;;;;1.63;1.52;;;;;;;;;;5007314;28;20033;-77
2023/08/24 14:11:31;;;;;;;1.60;1.50;;;;;;;;;;4998688;28;20044;-77
2023/08/24 14:13:57;;;;;;;2.20;1.55;;;;;;;;;;4997738;28;20029;-75
2023/08/24 14:16:23;;;;;;;1.90;1.67;;;;;;;;;;5002558;28;20026;-75
2023/08/24 14:18:49;;;;;;;2.70;1.48;;;;;;;;;;5004938;28;20490;-75
2023/08/24 14:21:16;;;;;;;1.58;1.48;;;;;;;;;;5008080;28;20116;-77
2023/08/24 14:23:42;;;;;;;2.10;1.60;;;;;;;;;;5004702;28;20385;-77
2023/08/24 14:26:10;;;;;;;1.73;1.60;;;;;;;;;;5004943;28;20031;-77
2023/08/24 14:28:55;;;;;;;1.75;1.63;;;;;;;;;;5001075;28;20262;-76
2023/08/24 14:31:21;;;;;;;2.05;1.77;;;;;;;;;;5000665;28;20072;-76
2023/08/24 14:33:48;;;;;;;2.05;1.70;;;;;;;;;;5004461;28;20026;-76
2023/08/24 14:36:14;;;;;;;2.63;2.00;;;;;;;;;;5004862;28;20022;-80
2023/08/24 14:38:43;;;;;;;2.00;1.52;;;;;;;;;;5002388;28;20033;-77
2023/08/24 14:41:09;;;;;;;2.13;1.83;;;;;;;;;;5003656;28;20465;-82